createdAt,value
2022-08-30T00:02:03.254Z,15.16
2022-08-30T00:04:32.392Z,15.24
2022-08-30T00:06:59.909Z,15.26
2022-08-30T00:09:26.495Z,15.26
2022-08-30T00:11:53.464Z,15.09
2022-08-30T00:14:20.845Z,15.08
2022-08-30T00:16:47.610Z,15.15
2022-08-30T00:19:14.471Z,15.11
2022-08-30T00:21:41.885Z,15.24
2022-08-30T00:24:08.713Z,15.26
2022-08-30T00:26:35.341Z,15.24
2022-08-30T00:29:01.982Z,15.15
2022-08-30T00:31:28.780Z,15.02
2022-08-30T00:33:55.375Z,14.98
2022-08-30T00:36:22.286Z,14.94
2022-08-30T00:38:48.943Z,14.88
2022-08-30T00:41:16.124Z,14.95
2022-08-30T00:43:43.026Z,15.00
2022-08-30T00:46:10.595Z,14.92
2022-08-30T00:48:43.519Z,14.85
2022-08-30T00:51:12.114Z,14.77
2022-08-30T00:53:42.348Z,14.80
2022-08-30T00:56:09.354Z,14.73
2022-08-30T00:58:39.294Z,14.70
2022-08-30T01:01:07.512Z,14.62
2022-08-30T01:03:35.846Z,14.55
2022-08-30T01:06:05.038Z,14.68
2022-08-30T01:08:31.857Z,14.63
2022-08-30T01:10:58.597Z,14.42
2022-08-30T01:13:26.630Z,14.42
2022-08-30T01:15:54.011Z,14.35
2022-08-30T01:18:23.397Z,14.42
2022-08-30T01:21:20.567Z,14.45
2022-08-30T01:23:50.441Z,14.44
2022-08-30T01:26:22.152Z,14.14
2022-08-30T01:28:52.527Z,14.20
2022-08-30T01:31:19.909Z,14.32
2022-08-30T01:33:46.722Z,14.22
2022-08-30T01:36:14.872Z,14.37
2022-08-30T01:38:59.396Z,14.20
2022-08-30T01:41:36.517Z,14.29
2022-08-30T01:44:08.587Z,14.30
2022-08-30T01:46:39.099Z,14.35
2022-08-30T01:49:10.898Z,14.35
2022-08-30T01:51:38.639Z,14.13
2022-08-30T01:54:05.852Z,14.27
2022-08-30T01:56:32.629Z,14.32
2022-08-30T01:59:02.890Z,14.22
2022-08-30T02:01:32.570Z,14.12
2022-08-30T02:04:00.440Z,14.23
2022-08-30T02:06:27.554Z,14.17
2022-08-30T02:08:54.204Z,14.14
2022-08-30T02:11:21.277Z,14.09
2022-08-30T02:13:48.032Z,13.94
2022-08-30T02:16:18.318Z,13.94
2022-08-30T02:18:45.863Z,13.85
2022-08-30T02:21:12.833Z,13.80
2022-08-30T02:23:40.302Z,13.82
2022-08-30T02:26:08.428Z,13.83
2022-08-30T02:28:35.241Z,13.76
2022-08-30T02:31:10.310Z,13.84
2022-08-30T02:33:38.094Z,13.93
2022-08-30T02:36:08.393Z,14.00
2022-08-30T02:38:35.960Z,13.84
2022-08-30T02:41:02.663Z,13.81
2022-08-30T02:43:29.590Z,13.83
2022-08-30T02:45:56.224Z,13.74
2022-08-30T02:48:22.982Z,13.80
2022-08-30T02:50:52.521Z,13.66
2022-08-30T02:53:21.269Z,13.66
2022-08-30T02:55:49.203Z,13.64
2022-08-30T02:58:16.244Z,13.58
2022-08-30T03:00:43.161Z,13.59
2022-08-30T03:03:11.260Z,13.52
2022-08-30T03:05:39.745Z,13.50
2022-08-30T03:08:07.262Z,13.53
2022-08-30T03:10:34.053Z,13.18
2022-08-30T03:13:01.050Z,13.01
2022-08-30T03:15:28.599Z,12.91
2022-08-30T03:17:56.438Z,12.87
2022-08-30T03:20:24.071Z,13.00
2022-08-30T03:22:51.352Z,13.08
2022-08-30T03:25:18.524Z,13.14
2022-08-30T03:27:45.442Z,13.18
2022-08-30T03:30:13.328Z,13.22
2022-08-30T03:32:41.151Z,13.24
2022-08-30T03:35:11.324Z,12.94
2022-08-30T03:37:38.033Z,12.90
2022-08-30T03:40:07.456Z,12.99
2022-08-30T03:42:34.996Z,13.07
2022-08-30T03:45:02.981Z,13.13
2022-08-30T03:47:29.840Z,13.19
2022-08-30T03:49:57.694Z,13.23
2022-08-30T03:52:24.484Z,13.25
2022-08-30T03:54:51.346Z,13.31
2022-08-30T03:57:20.135Z,13.34
2022-08-30T03:59:47.317Z,13.37
2022-08-30T04:02:14.019Z,13.31
2022-08-30T04:04:40.680Z,13.27
2022-08-30T04:07:07.581Z,13.21
2022-08-30T04:09:34.357Z,13.15
2022-08-30T04:12:01.175Z,13.20
2022-08-30T04:14:28.026Z,12.90
2022-08-30T04:16:55.768Z,12.96
2022-08-30T04:19:22.566Z,12.93
2022-08-30T04:21:49.968Z,12.81
2022-08-30T04:24:16.729Z,12.84
2022-08-30T04:26:43.872Z,12.74
2022-08-30T04:29:13.408Z,12.69
2022-08-30T04:31:40.420Z,12.72
2022-08-30T04:34:07.177Z,12.67
2022-08-30T04:36:33.946Z,12.78
2022-08-30T04:39:00.834Z,12.54
2022-08-30T04:41:29.181Z,12.60
2022-08-30T04:43:56.111Z,12.69
2022-08-30T04:46:23.451Z,12.78
2022-08-30T04:48:50.241Z,12.47
2022-08-30T04:51:17.853Z,12.41
2022-08-30T04:53:46.992Z,12.52
2022-08-30T04:56:16.895Z,12.60
2022-08-30T04:58:47.589Z,12.59
2022-08-30T05:01:18.936Z,12.57
2022-08-30T05:03:48.377Z,12.70
2022-08-30T05:06:15.978Z,12.73
2022-08-30T05:08:46.101Z,12.79
2022-08-30T05:11:15.030Z,12.95
2022-08-30T05:13:41.801Z,12.94
2022-08-30T05:16:09.181Z,13.05
2022-08-30T05:18:36.860Z,13.17
2022-08-30T05:21:10.385Z,13.28
2022-08-30T05:23:38.254Z,13.28
2022-08-30T05:26:33.612Z,13.41
2022-08-30T05:29:01.611Z,13.43
2022-08-30T05:31:31.126Z,13.46
2022-08-30T05:33:58.047Z,13.48
2022-08-30T05:36:27.784Z,13.55
2022-08-30T05:38:55.713Z,13.50
2022-08-30T05:41:26.549Z,13.53
2022-08-30T05:43:55.572Z,13.56
2022-08-30T05:46:23.098Z,13.51
2022-08-30T05:48:50.435Z,13.45
2022-08-30T05:51:21.414Z,13.63
2022-08-30T05:53:49.539Z,13.73
2022-08-30T05:56:18.915Z,13.80
2022-08-30T05:58:45.791Z,13.91
2022-08-30T06:01:25.205Z,14.09
2022-08-30T06:03:53.804Z,14.20
2022-08-30T06:06:20.919Z,14.33
2022-08-30T06:08:48.663Z,14.46
2022-08-30T06:11:19.470Z,14.57
2022-08-30T06:13:48.948Z,14.72
2022-08-30T06:16:18.892Z,14.80
2022-08-30T06:18:48.104Z,14.93
2022-08-30T06:21:20.835Z,14.95
2022-08-30T06:23:49.553Z,15.10
2022-08-30T06:26:19.379Z,15.11
2022-08-30T06:28:48.509Z,15.10
2022-08-30T06:31:18.426Z,15.18
2022-08-30T06:33:46.799Z,15.28
2022-08-30T06:36:22.183Z,15.48
2022-08-30T06:38:54.439Z,15.50
2022-08-30T06:41:24.661Z,15.56
2022-08-30T06:43:52.084Z,15.55
2022-08-30T06:46:27.841Z,15.70
2022-08-30T06:48:56.294Z,15.86
2022-08-30T06:51:30.409Z,15.84
2022-08-30T06:53:58.304Z,16.01
2022-08-30T06:56:27.425Z,16.24
2022-08-30T06:58:55.185Z,16.37
2022-08-30T07:01:25.288Z,16.46
2022-08-30T07:03:52.378Z,16.62
2022-08-30T07:06:20.120Z,16.80
2022-08-30T07:08:47.724Z,16.95
2022-08-30T07:11:15.158Z,17.17
2022-08-30T07:13:42.142Z,17.35
2022-08-30T07:16:13.656Z,17.44
2022-08-30T07:18:56.221Z,17.70
2022-08-30T07:21:43.994Z,17.93
2022-08-30T07:24:12.090Z,18.05
2022-08-30T07:26:42.341Z,18.01
2022-08-30T07:29:10.688Z,18.15
2022-08-30T07:31:37.847Z,18.37
2022-08-30T07:34:06.224Z,18.35
2022-08-30T07:36:33.853Z,18.47
2022-08-30T07:39:01.839Z,18.71
2022-08-30T07:41:31.879Z,18.84
2022-08-30T07:43:58.963Z,19.01
2022-08-30T07:46:28.014Z,19.03
2022-08-30T07:48:55.404Z,19.22
2022-08-30T07:51:25.516Z,19.34
2022-08-30T07:53:52.960Z,19.31
2022-08-30T07:56:21.152Z,19.41
2022-08-30T07:58:49.201Z,19.53
2022-08-30T08:01:17.297Z,19.79
2022-08-30T08:03:44.935Z,19.91
2022-08-30T08:06:14.193Z,19.98
2022-08-30T08:08:41.800Z,19.95
2022-08-30T08:11:16.270Z,20.07
2022-08-30T08:13:48.957Z,20.13
2022-08-30T08:16:23.825Z,20.43
2022-08-30T08:18:51.979Z,20.45
2022-08-30T08:21:18.873Z,20.44
2022-08-30T08:23:45.667Z,20.59
2022-08-30T08:26:12.524Z,20.66
2022-08-30T08:28:39.719Z,20.79
2022-08-30T08:31:36.441Z,20.91
2022-08-30T08:34:06.168Z,21.12
2022-08-30T08:36:34.148Z,21.19
2022-08-30T08:39:01.985Z,21.30
2022-08-30T08:41:43.849Z,21.34
2022-08-30T08:44:34.614Z,21.45
2022-08-30T08:47:48.062Z,21.61
2022-08-30T08:50:20.180Z,21.76
2022-08-30T08:53:45.507Z,21.90
2022-08-30T08:56:16.621Z,21.99
2022-08-30T08:58:47.754Z,22.24
2022-08-30T09:01:18.247Z,22.39
2022-08-30T09:03:45.752Z,22.44
2022-08-30T09:07:06.574Z,22.63
2022-08-30T09:09:36.263Z,22.46
2022-08-30T09:12:05.123Z,22.72
2022-08-30T09:14:35.693Z,22.69
2022-08-30T09:17:06.858Z,22.90
2022-08-30T09:19:40.441Z,22.98
2022-08-30T09:22:29.186Z,23.25
2022-08-30T09:25:21.161Z,23.42
2022-08-30T09:27:49.758Z,23.47
2022-08-30T09:30:25.953Z,23.67
2022-08-30T09:33:02.113Z,23.93
2022-08-30T09:35:49.524Z,24.02
2022-08-30T09:38:25.119Z,24.05
2022-08-30T09:40:55.321Z,24.12
2022-08-30T09:43:28.405Z,24.24
2022-08-30T09:46:21.513Z,24.18
2022-08-30T09:48:48.758Z,24.23
2022-08-30T09:51:43.203Z,24.49
2022-08-30T09:54:31.970Z,24.51
2022-08-30T09:57:16.812Z,24.37
2022-08-30T09:59:51.493Z,24.10
2022-08-30T10:02:32.187Z,24.26
2022-08-30T10:05:13.530Z,24.45
2022-08-30T10:07:59.000Z,24.35
2022-08-30T10:10:47.623Z,24.18
2022-08-30T10:13:54.317Z,24.51
2022-08-30T10:16:46.060Z,24.65
2022-08-30T10:19:39.918Z,24.63
2022-08-30T10:22:31.937Z,24.63
2022-08-30T10:25:16.031Z,24.65
2022-08-30T10:27:59.717Z,24.85
2022-08-30T10:30:28.182Z,24.62
2022-08-30T10:33:00.811Z,24.72
2022-08-30T10:35:38.640Z,24.82
2022-08-30T10:38:14.054Z,24.97
2022-08-30T10:41:03.658Z,24.92
2022-08-30T10:43:39.192Z,24.97
2022-08-30T10:46:10.775Z,25.17
2022-08-30T10:48:41.505Z,25.15
2022-08-30T10:51:27.268Z,25.14
2022-08-30T10:54:04.883Z,25.34
2022-08-30T10:56:36.319Z,25.32
2022-08-30T10:59:05.414Z,25.29
2022-08-30T11:04:40.047Z,25.28
2022-08-30T11:07:49.316Z,25.36
2022-08-30T11:10:37.788Z,25.17
2022-08-30T11:13:26.189Z,25.13
2022-08-30T11:16:01.893Z,25.25
2022-08-30T11:18:51.923Z,25.50
2022-08-30T11:21:37.372Z,25.45
2022-08-30T11:24:07.794Z,25.64
2022-08-30T11:26:51.516Z,25.67
2022-08-30T11:29:53.028Z,25.59
2022-08-30T11:32:23.088Z,25.72
2022-08-30T11:34:56.895Z,25.71
2022-08-30T11:37:42.509Z,25.78
2022-08-30T11:40:48.413Z,25.88
2022-08-30T11:43:56.305Z,25.73
2022-08-30T11:46:41.801Z,25.88
2022-08-30T11:49:32.611Z,25.92
2022-08-30T11:52:28.496Z,25.89
2022-08-30T11:55:12.491Z,26.24
2022-08-30T11:57:50.891Z,26.22
2022-08-30T12:00:40.807Z,26.24
2022-08-30T12:03:37.219Z,26.20
2022-08-30T12:06:06.664Z,26.05
2022-08-30T12:08:45.570Z,26.00
2022-08-30T12:11:43.125Z,26.13
2022-08-30T12:14:41.438Z,26.38
2022-08-30T12:17:35.334Z,26.36
2022-08-30T12:20:02.129Z,26.58
2022-08-30T12:22:30.983Z,26.70
2022-08-30T12:24:58.112Z,26.86
2022-08-30T12:27:33.447Z,26.71
2022-08-30T12:30:07.646Z,26.62
2022-08-30T12:32:46.063Z,26.72
2022-08-30T12:35:21.325Z,26.83
2022-08-30T12:37:57.310Z,27.09
2022-08-30T12:40:25.575Z,26.90
2022-08-30T12:42:55.422Z,26.60
2022-08-30T12:45:25.908Z,26.52
2022-08-30T12:48:11.267Z,26.54
2022-08-30T12:50:53.723Z,26.84
2022-08-30T12:53:28.760Z,26.94
2022-08-30T12:56:10.748Z,26.84
2022-08-30T12:58:55.815Z,26.99
2022-08-30T13:01:33.335Z,27.06
2022-08-30T13:04:14.954Z,27.06
2022-08-30T13:06:49.045Z,27.06
2022-08-30T13:09:37.320Z,26.83
2022-08-30T13:12:07.407Z,26.60
2022-08-30T13:14:43.455Z,26.57
2022-08-30T13:17:19.482Z,26.62
2022-08-30T13:20:22.568Z,26.43
2022-08-30T13:23:07.931Z,26.46
2022-08-30T13:25:36.636Z,26.63
2022-08-30T13:28:04.838Z,26.91
2022-08-30T13:30:32.701Z,27.16
2022-08-30T13:33:01.495Z,27.36
2022-08-30T13:35:30.488Z,27.59
2022-08-30T13:37:57.837Z,27.69
2022-08-30T13:40:25.107Z,27.64
2022-08-30T13:42:52.059Z,27.77
2022-08-30T13:48:06.958Z,27.76
2022-08-30T13:50:33.561Z,27.67
2022-08-30T13:53:00.504Z,27.52
2022-08-30T13:55:28.253Z,27.14
2022-08-30T13:57:56.128Z,27.01
2022-08-30T14:00:25.167Z,26.70
2022-08-30T14:02:57.466Z,26.22
2022-08-30T14:11:11.982Z,26.01
2022-08-30T14:14:14.790Z,25.77
2022-08-30T14:16:27.825Z,25.92
2022-08-30T14:18:55.780Z,25.94
2022-08-30T14:21:24.849Z,26.06
2022-08-30T14:23:56.619Z,26.08
2022-08-30T14:26:32.388Z,26.12
2022-08-30T14:29:01.852Z,26.13
2022-08-30T14:31:30.286Z,26.14
2022-08-30T14:33:59.707Z,26.35
2022-08-30T14:36:26.446Z,26.65
2022-08-30T14:38:56.278Z,26.92
2022-08-30T14:41:23.035Z,27.10
2022-08-30T14:43:51.410Z,27.21
2022-08-30T14:46:18.205Z,27.40
2022-08-30T14:48:45.140Z,27.66
2022-08-30T14:51:18.622Z,27.78
2022-08-30T14:53:46.111Z,27.65
2022-08-30T14:56:16.476Z,27.60
2022-08-30T14:58:47.302Z,27.40
2022-08-30T15:01:14.551Z,27.02
2022-08-30T15:03:41.760Z,26.86
2022-08-30T15:06:09.379Z,26.62
2022-08-30T15:08:38.312Z,26.50
2022-08-30T15:11:14.414Z,26.40
2022-08-30T15:13:42.482Z,26.20
2022-08-30T15:16:19.401Z,26.39
2022-08-30T15:18:46.460Z,26.43
2022-08-30T15:21:13.540Z,26.53
2022-08-30T15:23:40.839Z,26.26
2022-08-30T15:26:08.979Z,26.28
2022-08-30T15:28:37.197Z,26.47
2022-08-30T15:31:08.629Z,26.30
2022-08-30T15:33:37.506Z,26.27
2022-08-30T15:36:05.814Z,26.42
2022-08-30T15:38:32.803Z,26.35
2022-08-30T15:41:03.707Z,26.52
2022-08-30T15:43:31.480Z,26.53
2022-08-30T15:46:16.159Z,26.63
2022-08-30T15:48:45.825Z,26.51
2022-08-30T15:51:13.887Z,26.73
2022-08-30T15:53:40.970Z,26.40
2022-08-30T15:56:07.942Z,26.16
2022-08-30T15:58:35.387Z,25.81
2022-08-30T16:01:02.561Z,25.62
2022-08-30T16:03:29.484Z,25.43
2022-08-30T16:05:57.481Z,25.30
2022-08-30T16:08:24.368Z,25.06
2022-08-30T16:10:52.743Z,25.22
2022-08-30T16:13:20.034Z,25.42
2022-08-30T16:15:47.037Z,25.53
2022-08-30T16:18:15.610Z,25.72
2022-08-30T16:20:44.352Z,25.65
2022-08-30T16:23:11.668Z,25.79
2022-08-30T16:25:40.603Z,25.56
2022-08-30T16:28:09.316Z,25.52
2022-08-30T16:30:36.731Z,25.43
2022-08-30T16:33:03.546Z,25.51
2022-08-30T16:35:30.228Z,25.41
2022-08-30T16:37:57.108Z,25.44
2022-08-30T16:40:24.076Z,25.39
2022-08-30T16:42:50.876Z,25.29
2022-08-30T16:45:17.966Z,24.98
2022-08-30T16:47:46.253Z,25.02
2022-08-30T16:50:13.116Z,24.98
2022-08-30T16:52:43.965Z,24.88
2022-08-30T16:55:11.098Z,24.82
2022-08-30T16:57:38.748Z,24.63
2022-08-30T17:02:55.954Z,24.21
2022-08-30T17:05:23.270Z,24.26
2022-08-30T17:07:50.468Z,24.16
2022-08-30T17:10:23.033Z,24.10
2022-08-30T17:12:50.331Z,24.07
2022-08-30T17:15:17.686Z,24.05
2022-08-30T17:17:44.660Z,24.00
2022-08-30T17:20:12.123Z,24.05
2022-08-30T17:22:38.823Z,23.98
2022-08-30T17:25:07.089Z,23.97
2022-08-30T17:27:34.248Z,23.89
2022-08-30T17:30:00.853Z,23.74
2022-08-30T17:32:27.637Z,23.64
2022-08-30T17:34:54.333Z,23.63
2022-08-30T17:37:21.023Z,23.52
2022-08-30T17:39:48.281Z,23.38
2022-08-30T17:42:15.871Z,23.49
2022-08-30T17:44:42.658Z,23.32
2022-08-30T17:47:09.794Z,23.23
2022-08-30T17:49:36.970Z,23.21
2022-08-30T17:52:04.652Z,22.86
2022-08-30T17:54:33.469Z,23.05
2022-08-30T17:57:00.827Z,23.11
2022-08-30T17:59:29.331Z,23.06
2022-08-30T18:02:00.196Z,23.05
2022-08-30T18:04:27.269Z,22.86
2022-08-30T18:06:57.587Z,22.73
2022-08-30T18:09:24.537Z,22.75
2022-08-30T18:11:56.339Z,22.78
2022-08-30T18:14:23.530Z,22.74
2022-08-30T18:16:54.342Z,22.70
2022-08-30T18:19:37.026Z,22.67
2022-08-30T18:22:13.137Z,22.40
2022-08-30T18:24:40.122Z,22.45
2022-08-30T18:27:07.539Z,22.39
2022-08-30T18:29:37.846Z,22.35
2022-08-30T18:32:05.728Z,22.32
2022-08-30T18:34:36.173Z,22.34
2022-08-30T18:37:02.740Z,22.13
2022-08-30T18:39:34.122Z,22.19
2022-08-30T18:42:02.619Z,22.09
2022-08-30T18:44:33.365Z,22.13
2022-08-30T18:47:03.678Z,22.02
2022-08-30T18:49:32.513Z,22.03
2022-08-30T18:52:00.688Z,22.05
2022-08-30T18:54:27.859Z,21.87
2022-08-30T18:56:54.815Z,21.77
2022-08-30T18:59:21.771Z,21.78
2022-08-30T19:01:49.666Z,21.72
2022-08-30T19:04:30.089Z,21.78
2022-08-30T19:07:02.731Z,21.72
2022-08-30T19:09:29.480Z,21.69
2022-08-30T19:11:56.141Z,21.50
2022-08-30T19:14:22.940Z,21.47
2022-08-30T19:16:49.861Z,21.49
2022-08-30T19:19:16.928Z,21.45
2022-08-30T19:21:43.724Z,21.44
2022-08-30T19:24:11.645Z,21.42
2022-08-30T19:26:38.647Z,21.53
2022-08-30T19:29:06.912Z,21.53
2022-08-30T19:31:34.144Z,21.42
2022-08-30T19:34:01.000Z,21.41
2022-08-30T19:36:29.013Z,21.34
2022-08-30T19:38:56.194Z,21.36
2022-08-30T19:41:24.285Z,21.14
2022-08-30T19:43:51.161Z,21.14
2022-08-30T19:46:17.870Z,21.22
2022-08-30T19:48:44.822Z,21.13
2022-08-30T19:51:13.769Z,21.10
2022-08-30T19:53:42.056Z,21.09
2022-08-30T19:56:09.027Z,21.08
2022-08-30T19:58:36.050Z,20.87
2022-08-30T20:01:10.572Z,20.83
2022-08-30T20:03:40.057Z,20.81
2022-08-30T20:06:07.401Z,20.60
2022-08-30T20:08:34.380Z,20.70
2022-08-30T20:11:01.228Z,20.65
2022-08-30T20:13:28.469Z,20.65
2022-08-30T20:16:00.880Z,20.72
2022-08-30T20:18:29.083Z,20.65
2022-08-30T20:20:55.971Z,20.64
2022-08-30T20:23:26.231Z,20.66
2022-08-30T20:24:23.218Z,24.43
2022-08-30T20:25:54.887Z,20.68
2022-08-30T20:28:22.461Z,20.60
2022-08-30T20:30:50.228Z,20.35
2022-08-30T20:33:18.091Z,20.48
2022-08-30T20:35:48.987Z,20.47
2022-08-30T20:38:22.657Z,20.40
2022-08-30T20:40:55.242Z,20.29
2022-08-30T20:43:25.939Z,20.24
2022-08-30T20:45:53.716Z,20.19
2022-08-30T20:48:20.706Z,20.28
2022-08-30T20:50:47.785Z,20.40
2022-08-30T20:53:14.382Z,20.36
2022-08-30T20:55:46.291Z,20.28
2022-08-30T20:58:14.445Z,20.35
2022-08-30T21:00:45.687Z,20.27
2022-08-30T21:03:28.035Z,20.30
2022-08-30T21:05:55.978Z,20.41
2022-08-30T21:08:24.891Z,20.29
2022-08-30T21:10:52.581Z,20.17
2022-08-30T21:13:19.227Z,20.02
2022-08-30T21:18:15.351Z,20.05
2022-08-30T21:20:42.386Z,20.11
2022-08-30T21:23:09.703Z,20.09
2022-08-30T21:25:43.974Z,20.16
2022-08-30T21:28:11.398Z,20.09
2022-08-30T21:30:38.684Z,19.97
2022-08-30T21:33:07.520Z,19.91
2022-08-30T21:35:56.496Z,19.82
2022-08-30T21:38:23.169Z,19.73
2022-08-30T21:40:50.002Z,19.78
2022-08-30T21:43:16.931Z,19.75
2022-08-30T21:45:45.106Z,19.75
2022-08-30T21:48:13.394Z,19.70
2022-08-30T21:50:41.784Z,19.75
2022-08-30T21:53:08.712Z,19.57
2022-08-30T21:55:36.696Z,19.60
2022-08-30T21:58:04.086Z,19.57
2022-08-30T22:00:31.866Z,19.55
2022-08-30T22:02:58.726Z,19.71
2022-08-30T22:05:25.637Z,19.59
2022-08-30T22:07:52.437Z,19.40
2022-08-30T22:10:21.220Z,19.47
2022-08-30T22:12:47.980Z,19.52
2022-08-30T22:15:15.666Z,19.43
2022-08-30T22:17:43.169Z,19.32
2022-08-30T22:20:10.469Z,19.36
2022-08-30T22:22:38.216Z,19.21
2022-08-30T22:25:05.640Z,19.00
2022-08-30T22:27:32.357Z,18.93
2022-08-30T22:29:59.292Z,18.91
2022-08-30T22:32:25.917Z,18.92
2022-08-30T22:34:52.696Z,18.92
2022-08-30T22:37:19.390Z,19.12
2022-08-30T22:39:46.292Z,18.96
2022-08-30T22:42:13.859Z,19.00
2022-08-30T22:44:41.050Z,19.14
2022-08-30T22:47:09.423Z,18.99
2022-08-30T22:49:36.436Z,19.02
2022-08-30T22:52:03.575Z,19.06
2022-08-30T22:54:31.467Z,18.93
2022-08-30T22:56:58.466Z,18.94
2022-08-30T22:59:31.275Z,19.02
2022-08-30T23:01:59.994Z,19.03
2022-08-30T23:04:26.720Z,19.09
2022-08-30T23:06:53.538Z,18.96
2022-08-30T23:09:21.222Z,18.82
2022-08-30T23:11:48.089Z,18.81
2022-08-30T23:14:15.081Z,18.93
2022-08-30T23:16:41.745Z,19.02
2022-08-30T23:19:08.510Z,19.04
2022-08-30T23:21:35.203Z,18.97
2022-08-30T23:24:20.487Z,18.71
2022-08-30T23:27:06.532Z,18.77
2022-08-30T23:29:53.281Z,18.72
2022-08-30T23:32:40.018Z,18.56
2022-08-30T23:35:29.403Z,18.57
2022-08-30T23:38:18.306Z,18.55
2022-08-30T23:41:03.504Z,18.66
2022-08-30T23:43:48.733Z,18.72
2022-08-30T23:46:34.141Z,18.53
2022-08-30T23:49:20.428Z,18.60
2022-08-30T23:52:05.788Z,18.44
2022-08-30T23:54:51.274Z,18.47
2022-08-30T23:57:36.817Z,18.38
